Date,TemperatureHighF,TemperatureAvgF,TemperatureLowF,DewpointHighF,DewpointAvgF,DewpointLowF,HumidityHigh,HumidityAvg,HumidityLow,PressureMaxIn,PressureMinIn,WindSpeedMaxMPH,WindSpeedAvgMPH,GustSpeedMaxMPH,PrecipitationSumIn
2013-1-1,24,15,0,7,3,-9,75,59,40,30.14,29.93,9,5,11,0.00
2013-1-2,35,23,10,29,16,2,84,75,66,30.04,29.86,10,6,13,0.00
2013-1-3,29,20,14,25,11,7,84,68,47,30.24,30.03,12,6,15,0.00
2013-1-4,34,23,12,17,12,7,78,64,49,30.14,29.96,9,6,11,0.00
2013-1-5,22,21,15,18,17,9,85,83,77,29.89,29.87,9,8,13,0.00
2013-1-6,36,27,11,20,15,5,77,62,46,30.15,29.96,12,5,12,0.00
2013-1-7,41,34,25,29,24,19,84,68,59,29.96,29.80,15,6,18,0.00
2013-1-8,41,32,20,30,25,17,90,76,64,29.93,29.67,15,7,21,0.00
2013-1-9,53,38,22,31,26,17,84,67,42,30.27,29.92,9,4,11,0.00
2013-1-10,38,35,31,36,33,24,98,92,69,30.16,29.55,8,5,10,0.14
2013-1-11,44,36,29,42,35,24,99,94,84,29.55,29.26,29,10,33,0.15
2013-1-12,29,18,10,24,3,-3,83,53,45,29.98,29.53,22,12,25,0.15
2013-1-13,23,16,6,2,-1,-5,64,48,35,30.14,29.96,14,8,19,0.15
2013-1-14,32,21,6,11,5,-3,70,52,37,30.28,30.13,10,4,12,0.15
2013-1-15,38,26,10,20,12,2,75,58,41,30.18,29.90,15,6,17,0.15
2013-1-16,54,40,23,34,28,15,87,65,42,30.09,29.75,15,8,18,0.15
2013-1-17,32,27,21,30,24,17,96,89,82,30.29,30.07,12,3,14,0.00
2013-1-18,51,42,27,33,30,-24,92,64,49,30.14,29.72,20,11,100,0.00
2013-1-19,54,40,19,32,25,9,76,58,41,30.18,29.71,22,12,27,0.00
2013-1-20,20,16,12,10,3,-1,67,57,43,30.25,30.15,10,6,11,0.00
2013-1-21,19,9,3,-7,-12,-17,49,39,24,30.28,30.17,11,6,15,0.00
2013-1-22,24,14,9,7,0,-9,67,55,43,30.21,30.08,7,3,9,0.00
2013-1-23,14,14,14,2,2,2,59,59,59,30.09,30.09,2,2,3,0.00
2013-1-24,14,14,14,2,2,2,59,59,59,30.09,30.09,2,2,3,0.00
2013-1-25,14,14,14,2,2,2,59,59,59,30.09,30.09,2,2,3,0.00
2013-1-26,14,14,14,2,2,2,59,59,59,30.09,30.09,2,2,3,0.00
2013-1-27,14,14,14,2,2,2,59,59,59,30.09,30.09,2,2,3,0.00
2013-5-16,50,50,50,32,32,32,49,49,49,29.67,29.60,7,7,7,0.00
2013-5-17,50,50,50,32,32,32,49,49,49,29.73,29.66,7,7,7,0.00
2013-5-18,50,50,50,32,32,32,49,49,49,29.75,29.54,7,7,7,0.00
2013-5-19,50,50,50,32,32,32,49,49,49,29.58,29.37,7,7,7,0.00
2013-5-20,50,50,50,32,32,32,49,49,49,29.47,29.40,7,7,7,0.00
2013-5-21,50,50,50,32,32,32,49,49,49,29.57,29.43,7,7,7,0.00
2013-5-22,50,50,50,32,32,32,49,49,49,29.79,29.57,7,7,7,0.00
2013-5-23,50,50,50,32,32,32,49,49,49,30.06,29.79,7,7,7,0.00
2013-5-24,50,50,50,32,32,32,49,49,49,30.13,30.06,7,7,7,0.00
2013-7-31,0,0,0,0,0,0,0,0,100,29.98,29.88,0,0,0,0.00
2013-8-1,0,0,0,0,0,0,0,0,100,29.95,29.72,0,0,0,0.00
2013-8-2,0,0,0,0,0,0,0,0,100,29.87,29.74,0,0,0,0.00
2013-8-3,0,0,0,0,0,0,0,0,100,30.02,29.95,0,0,0,0.00
2013-8-10,88,81,68,66,64,55,89,60,45,29.92,29.92,9,3,10,0.05
2013-8-11,89,81,69,72,70,64,94,71,52,29.92,29.92,11,5,15,0.06
2013-8-12,94,82,66,72,66,61,99,65,37,29.92,29.92,4,1,4,0.07
2013-8-13,91,77,-3,65,60,-24,99,60,35,29.92,29.92,97,2,97,0.07
2013-8-14,77,77,77,63,63,63,62,62,62,29.92,29.92,0,0,0,0.07
2013-8-15,77,77,77,63,63,63,62,62,62,29.92,29.92,0,0,0,0.00
2013-8-24,0,0,0,0,0,0,0,0,100,29.92,29.92,0,0,0,0.07
2013-8-25,0,0,0,0,0,0,0,0,100,29.92,29.92,0,0,0,0.07